Time;durP1;ratioP1;P1;durP2;ratioP2;P2;SDS_P1;SDS_P2;PMS_P1;PMS_P2;Temp;Humidity;BMP_temperature;BMP_pressure;BME280_temperature;BME280_humidity;BME280_pressure;Samples;Min_cycle;Max_cycle;Signal;HPM_P1;HPM_P2
2021/01/03 00:00:14;;;;;;;;;;;20.90;99.90;;;;;;5014557;28;20214;-90
2021/01/03 00:02:45;;;;;;;;;;;20.90;99.90;;;;;;5028237;28;19919;-86
2021/01/03 00:05:12;;;;;;;;;;;20.90;99.90;;;;;;5039259;28;19913;-91
2021/01/03 00:07:42;;;;;;;;;;;20.90;99.90;;;;;;5027519;28;19944;-87
2021/01/03 00:10:09;;;;;;;;;;;20.90;99.90;;;;;;5039479;28;20276;-89
2021/01/03 00:12:38;;;;;;;;;;;20.90;99.90;;;;;;5038786;28;20261;-88
2021/01/03 00:15:06;;;;;;;;;;;21.10;99.90;;;;;;5039040;28;20023;-87
2021/01/03 00:17:36;;;;;;;;;;;21.30;99.90;;;;;;5036980;28;20360;-88
2021/01/03 00:20:05;;;;;;;;;;;21.40;99.90;;;;;;5038324;28;19909;-90
2021/01/03 00:22:31;;;;;;;;;;;21.40;99.90;;;;;;5024148;28;19913;-89
2021/01/03 00:25:01;;;;;;;;;;;21.50;99.90;;;;;;5017852;28;20403;-90
2021/01/03 00:27:29;;;;;;;;;;;21.40;99.90;;;;;;5018760;28;19917;-87
2021/01/03 00:29:56;;;;;;;;;;;21.40;99.90;;;;;;5029552;28;19910;-89
2021/01/03 00:32:23;;;;;;;;;;;21.50;99.90;;;;;;5036518;28;19910;-88
2021/01/03 00:34:50;;;;;;;;;;;21.50;99.90;;;;;;5037429;28;19913;-87
2021/01/03 00:37:21;;;;;;;;;;;21.50;99.90;;;;;;5037570;28;20353;-89
2021/01/03 00:39:49;;;;;;;;;;;21.40;99.90;;;;;;5038803;28;19956;-92
2021/01/03 00:42:16;;;;;;;;;;;21.40;99.90;;;;;;5036897;28;19917;-87
2021/01/03 00:44:43;;;;;;;;;;;21.50;99.90;;;;;;5030097;28;19982;-87
2021/01/03 00:47:10;;;;;;;;;;;21.50;99.90;;;;;;5030254;28;19917;-85
2021/01/03 00:49:37;;;;;;;;;;;21.50;99.90;;;;;;5035431;28;19916;-88
2021/01/03 00:52:03;;;;;;;;;;;21.50;99.90;;;;;;5035997;28;19914;-88
2021/01/03 00:54:30;;;;;;;;;;;21.50;99.90;;;;;;5036191;28;19909;-85
2021/01/03 00:56:59;;;;;;;;;;;21.50;99.90;;;;;;5024751;28;20327;-87
2021/01/03 00:59:26;;;;;;;;;;;21.50;99.90;;;;;;5040610;28;20012;-87
2021/01/03 01:01:53;;;;;;;;;;;21.70;99.90;;;;;;5026269;28;19913;-88
2021/01/03 01:04:20;;;;;;;;;;;21.70;99.90;;;;;;5034642;28;20386;-87
2021/01/03 01:06:47;;;;;;;;;;;21.80;99.90;;;;;;5026469;28;20012;-85
2021/01/03 01:09:14;;;;;;;;;;;21.80;99.90;;;;;;5034519;28;19971;-85
2021/01/03 01:11:42;;;;;;;;;;;22.00;99.90;;;;;;5036046;28;20012;-82
2021/01/03 01:14:12;;;;;;;;;;;22.00;99.90;;;;;;5035206;28;19910;-83
2021/01/03 01:16:39;;;;;;;;;;;22.00;99.90;;;;;;5030359;28;20035;-82
2021/01/03 01:19:06;;;;;;;;;;;22.00;99.90;;;;;;5033227;28;19909;-81
2021/01/03 01:21:33;;;;;;;;;;;22.00;99.90;;;;;;5035197;28;19917;-85
2021/01/03 01:24:00;;;;;;;;;;;22.10;99.90;;;;;;5034384;28;20340;-86
2021/01/03 01:26:27;;;;;;;;;;;22.10;99.90;;;;;;5033853;28;19917;-87
2021/01/03 01:28:53;;;;;;;;;;;22.10;99.90;;;;;;5046758;28;19909;-86
2021/01/03 01:31:20;;;;;;;;;;;22.20;99.90;;;;;;5036233;28;19932;-84
2021/01/03 01:33:47;;;;;;;;;;;22.10;99.90;;;;;;5029691;28;19909;-85
2021/01/03 01:36:14;;;;;;;;;;;22.20;99.90;;;;;;5018915;28;20010;-87
2021/01/03 01:38:41;;;;;;;;;;;22.30;99.90;;;;;;5031923;28;19917;-85
2021/01/03 01:41:08;;;;;;;;;;;22.40;99.90;;;;;;5034841;28;19938;-85
2021/01/03 01:43:35;;;;;;;;;;;22.40;99.90;;;;;;5031171;28;19917;-85
2021/01/03 01:46:03;;;;;;;;;;;22.40;99.90;;;;;;5036403;28;19939;-86
2021/01/03 01:48:50;;;;;;;;;;;22.50;99.90;;;;;;5031897;28;19919;-85
2021/01/03 01:51:23;;;;;;;;;;;22.50;99.90;;;;;;5017221;28;19920;-85
2021/01/03 01:53:49;;;;;;;;;;;22.50;99.90;;;;;;5026196;28;19920;-85
2021/01/03 01:56:21;;;;;;;;;;;22.60;99.90;;;;;;5022500;28;21140;-84
2021/01/03 01:58:48;;;;;;;;;;;22.70;99.90;;;;;;5017087;28;19931;-85
2021/01/03 02:01:17;;;;;;;;;;;22.70;99.90;;;;;;5023042;28;19996;-84
2021/01/03 02:03:54;;;;;;;;;;;22.80;99.90;;;;;;5020962;28;19925;-84
2021/01/03 02:06:27;;;;;;;;;;;22.80;99.90;;;;;;5015075;28;19917;-86
2021/01/03 02:09:02;;;;;;;;;;;22.90;99.90;;;;;;5013825;28;19925;-85
2021/01/03 02:11:32;;;;;;;;;;;22.90;99.90;;;;;;5004773;28;20363;-87
2021/01/03 02:14:00;;;;;;;;;;;22.90;99.90;;;;;;5020522;28;19920;-86
2021/01/03 02:16:32;;;;;;;;;;;23.00;99.90;;;;;;5005744;28;19913;-84
2021/01/03 02:18:59;;;;;;;;;;;23.20;99.90;;;;;;5009895;28;20000;-86
2021/01/03 02:21:25;;;;;;;;;;;23.20;99.90;;;;;;5011190;28;20530;-86
2021/01/03 02:23:52;;;;;;;;;;;23.20;99.90;;;;;;5013871;28;19921;-87
2021/01/03 02:26:23;;;;;;;;;;;23.30;99.90;;;;;;5017721;28;20000;-87
2021/01/03 02:28:51;;;;;;;;;;;23.30;99.90;;;;;;4997787;28;19969;-80
2021/01/03 02:31:20;;;;;;;;;;;23.40;99.90;;;;;;5002234;28;19915;-83
2021/01/03 02:33:48;;;;;;;;;;;23.50;99.90;;;;;;5011734;28;19917;-84
2021/01/03 02:36:19;;;;;;;;;;;23.60;99.90;;;;;;5025558;28;19926;-84
2021/01/03 02:39:00;;;;;;;;;;;23.60;99.90;;;;;;5008654;28;19913;-85
2021/01/03 02:41:28;;;;;;;;;;;23.70;99.90;;;;;;5011087;28;19918;-84
2021/01/03 02:43:54;;;;;;;;;;;23.70;99.90;;;;;;5013147;28;20291;-84
2021/01/03 02:46:22;;;;;;;;;;;23.70;99.90;;;;;;5029943;28;19944;-87
2021/01/03 02:48:49;;;;;;;;;;;23.70;99.90;;;;;;5008883;28;20268;-83
2021/01/03 02:51:15;;;;;;;;;;;23.70;99.90;;;;;;5012300;28;19913;-84
2021/01/03 02:53:42;;;;;;;;;;;23.60;99.90;;;;;;5010220;28;20396;-83
2021/01/03 02:56:09;;;;;;;;;;;23.60;99.90;;;;;;5013673;28;19916;-84
2021/01/03 02:58:36;;;;;;;;;;;23.70;99.90;;;;;;5002796;28;20445;-84
2021/01/03 03:01:02;;;;;;;;;;;23.80;99.90;;;;;;5006438;28;19917;-84
2021/01/03 03:03:29;;;;;;;;;;;23.70;99.90;;;;;;5006644;28;19952;-84
2021/01/03 03:05:56;;;;;;;;;;;23.70;99.90;;;;;;5010186;28;21215;-81
2021/01/03 03:08:24;;;;;;;;;;;23.60;99.90;;;;;;5029344;28;19920;-83
2021/01/03 03:10:52;;;;;;;;;;;23.50;99.90;;;;;;5046203;28;19916;-85
2021/01/03 03:13:19;;;;;;;;;;;23.40;99.90;;;;;;5042119;28;19922;-84
2021/01/03 03:15:47;;;;;;;;;;;23.40;99.90;;;;;;5044991;28;19956;-82
2021/01/03 03:18:18;;;;;;;;;;;23.40;99.90;;;;;;5030350;28;19917;-83
2021/01/03 03:20:46;;;;;;;;;;;23.50;99.90;;;;;;5040629;28;20019;-83
2021/01/03 03:23:13;;;;;;;;;;;23.50;99.90;;;;;;5049682;28;20011;-84
2021/01/03 03:25:40;;;;;;;;;;;23.50;99.90;;;;;;5033703;28;19917;-86
2021/01/03 03:28:06;;;;;;;;;;;23.60;99.90;;;;;;5033809;28;19913;-85
2021/01/03 03:30:33;;;;;;;;;;;23.60;99.90;;;;;;5033354;28;20275;-85
2021/01/03 03:33:00;;;;;;;;;;;23.60;99.90;;;;;;5038494;28;20367;-86
2021/01/03 03:35:35;;;;;;;;;;;23.70;99.90;;;;;;5040097;28;19909;-85
2021/01/03 03:38:02;;;;;;;;;;;23.70;99.90;;;;;;5024650;28;19961;-85
2021/01/03 03:40:29;;;;;;;;;;;23.80;99.90;;;;;;5040871;28;20471;-84
2021/01/03 03:42:56;;;;;;;;;;;23.80;99.90;;;;;;5037203;28;20009;-83
2021/01/03 03:45:22;;;;;;;;;;;23.80;99.90;;;;;;5057063;28;19908;-85
2021/01/03 03:47:49;;;;;;;;;;;23.90;99.90;;;;;;5045444;28;19971;-83
2021/01/03 03:50:21;;;;;;;;;;;23.90;99.90;;;;;;5038124;28;19916;-86
2021/01/03 03:52:48;;;;;;;;;;;23.90;99.90;;;;;;5041765;28;19936;-84
2021/01/03 03:55:17;;;;;;;;;;;23.90;99.90;;;;;;5042881;28;20007;-90
2021/01/03 03:57:43;;;;;;;;;;;23.80;99.90;;;;;;5036203;28;19919;-86
2021/01/03 04:00:12;;;;;;;;;;;23.90;99.90;;;;;;5030293;28;19948;-87
2021/01/03 04:02:43;;;;;;;;;;;23.90;99.90;;;;;;5048515;28;19909;-86
2021/01/03 04:05:12;;;;;;;;;;;24.00;99.90;;;;;;5032731;28;19910;-85
2021/01/03 04:07:39;;;;;;;;;;;24.00;99.90;;;;;;5030327;28;19982;-85
2021/01/03 04:10:06;;;;;;;;;;;23.90;99.90;;;;;;5036016;28;19919;-85
2021/01/03 04:12:34;;;;;;;;;;;24.00;99.90;;;;;;5030289;28;19909;-85
2021/01/03 04:15:01;;;;;;;;;;;24.00;99.90;;;;;;5031911;28;20007;-88
2021/01/03 04:17:28;;;;;;;;;;;24.00;99.90;;;;;;5034134;28;19916;-87
2021/01/03 04:19:55;;;;;;;;;;;24.10;99.90;;;;;;5034763;28;19913;-86
2021/01/03 04:22:22;;;;;;;;;;;24.10;99.90;;;;;;5032660;28;19913;-88
2021/01/03 04:24:48;;;;;;;;;;;24.00;99.90;;;;;;5037561;28;19997;-86
2021/01/03 04:27:15;;;;;;;;;;;24.00;99.90;;;;;;5028893;28;19917;-85
2021/01/03 04:29:42;;;;;;;;;;;23.90;99.90;;;;;;5042830;28;19939;-84
2021/01/03 04:32:10;;;;;;;;;;;24.00;99.90;;;;;;5034518;28;19909;-88
2021/01/03 04:34:38;;;;;;;;;;;24.00;99.90;;;;;;5034978;28;19923;-86
2021/01/03 04:37:05;;;;;;;;;;;24.00;99.90;;;;;;5034369;28;19909;-85
2021/01/03 04:39:32;;;;;;;;;;;23.90;99.90;;;;;;5034037;28;19917;-85
2021/01/03 04:42:03;;;;;;;;;;;23.90;99.90;;;;;;5035276;28;19909;-85
2021/01/03 04:44:44;;;;;;;;;;;24.10;99.90;;;;;;5043661;28;19916;-87
2021/01/03 04:47:22;;;;;;;;;;;24.10;99.90;;;;;;5035838;28;19939;-82
2021/01/03 04:49:52;;;;;;;;;;;24.10;99.90;;;;;;5036542;28;19917;-84
2021/01/03 04:52:37;;;;;;;;;;;24.00;99.90;;;;;;5044019;28;19996;-86
2021/01/03 04:55:13;;;;;;;;;;;23.90;99.90;;;;;;5035651;28;20016;-84
2021/01/03 04:57:59;;;;;;;;;;;23.90;99.90;;;;;;5050154;28;19916;-86
2021/01/03 05:00:31;;;;;;;;;;;23.90;99.90;;;;;;5023599;28;19970;-87
2021/01/03 05:03:21;;;;;;;;;;;24.00;99.90;;;;;;5039200;28;19916;-89
2021/01/03 05:05:50;;;;;;;;;;;24.00;99.90;;;;;;5049315;28;19909;-88
2021/01/03 05:08:22;;;;;;;;;;;23.90;99.90;;;;;;5037253;28;19929;-89
2021/01/03 05:10:49;;;;;;;;;;;24.00;99.90;;;;;;5045252;28;19913;-89
2021/01/03 05:13:33;;;;;;;;;;;24.00;99.90;;;;;;5035435;28;21777;-90
2021/01/03 05:16:02;;;;;;;;;;;23.90;99.90;;;;;;5028570;28;19909;-89
2021/01/03 05:18:34;;;;;;;;;;;23.60;99.90;;;;;;5040759;28;19939;-90
2021/01/03 05:21:10;;;;;;;;;;;23.60;99.90;;;;;;5038489;28;19923;-88
2021/01/03 05:23:58;;;;;;;;;;;23.70;99.90;;;;;;5050860;28;19913;-89
2021/01/03 05:26:27;;;;;;;;;;;23.70;99.90;;;;;;5041369;28;20276;-90
2021/01/03 05:28:55;;;;;;;;;;;23.80;99.90;;;;;;5048611;28;20287;-89
2021/01/03 05:31:25;;;;;;;;;;;24.00;99.90;;;;;;5039199;28;19917;-88
2021/01/03 05:33:53;;;;;;;;;;;23.90;99.90;;;;;;5051928;28;20360;-89
2021/01/03 05:36:44;;;;;;;;;;;23.80;99.90;;;;;;5042948;28;19936;-89
2021/01/03 05:39:30;;;;;;;;;;;23.70;99.90;;;;;;5052911;28;19948;-87
2021/01/03 05:41:58;;;;;;;;;;;23.70;99.90;;;;;;5065009;28;20056;-91
2021/01/03 05:44:25;;;;;;;;;;;23.70;99.90;;;;;;5041150;28;20426;-89
2021/01/03 05:47:03;;;;;;;;;;;23.80;99.90;;;;;;5041621;28;19921;-89
2021/01/03 05:49:34;;;;;;;;;;;23.90;99.90;;;;;;5040453;28;20356;-89
2021/01/03 05:52:38;;;;;;;;;;;23.90;99.90;;;;;;5053693;28;19917;-90
2021/01/03 05:55:08;;;;;;;;;;;24.00;99.90;;;;;;5039712;28;19930;-88
2021/01/03 05:57:35;;;;;;;;;;;24.10;99.90;;;;;;5039489;28;20000;-88
2021/01/03 06:00:19;;;;;;;;;;;24.00;99.90;;;;;;5036897;28;19917;-90
2021/01/03 06:02:46;;;;;;;;;;;24.00;99.90;;;;;;5041993;28;19974;-89
2021/01/03 06:05:19;;;;;;;;;;;23.90;99.90;;;;;;5034543;28;19928;-88
2021/01/03 06:08:09;;;;;;;;;;;23.80;99.90;;;;;;5034101;28;19921;-90
2021/01/03 06:10:37;;;;;;;;;;;23.80;99.90;;;;;;5032224;28;19966;-90
2021/01/03 06:13:05;;;;;;;;;;;23.60;99.90;;;;;;5054419;28;19913;-90
2021/01/03 06:15:48;;;;;;;;;;;23.60;99.90;;;;;;5038050;28;19923;-89
2021/01/03 06:18:16;;;;;;;;;;;23.50;99.90;;;;;;5046930;28;19901;-89
2021/01/03 06:20:43;;;;;;;;;;;23.50;99.90;;;;;;5036535;28;19909;-88
2021/01/03 06:23:12;;;;;;;;;;;23.40;99.90;;;;;;5031499;28;20347;-88
2021/01/03 06:26:14;;;;;;;;;;;23.50;99.90;;;;;;5034704;28;19909;-86
2021/01/03 06:28:46;;;;;;;;;;;23.50;99.90;;;;;;4973405;28;20075;-86
2021/01/03 06:31:31;;;;;;;;;;;23.40;99.90;;;;;;5040224;28;19912;-87
2021/01/03 06:34:00;;;;;;;;;;;23.40;99.90;;;;;;5042183;28;19940;-87
2021/01/03 06:36:31;;;;;;;;;;;23.40;99.90;;;;;;5048656;28;19996;-87
2021/01/03 06:39:01;;;;;;;;;;;23.50;99.90;;;;;;5050031;28;19944;-87
2021/01/03 06:41:47;;;;;;;;;;;23.50;99.90;;;;;;5021493;28;19920;-85
2021/01/03 06:44:14;;;;;;;;;;;23.50;99.90;;;;;;5033129;28;19924;-86
2021/01/03 06:46:44;;;;;;;;;;;23.60;99.90;;;;;;5045609;28;19929;-86
2021/01/03 06:49:10;;;;;;;;;;;23.60;99.90;;;;;;5033073;28;20241;-87
2021/01/03 06:51:55;;;;;;;;;;;23.60;99.90;;;;;;5042158;28;20335;-84
2021/01/03 06:54:40;;;;;;;;;;;23.50;99.90;;;;;;5045170;28;19936;-86
2021/01/03 06:57:25;;;;;;;;;;;23.50;99.90;;;;;;5049734;28;20000;-86
2021/01/03 06:59:59;;;;;;;;;;;23.40;99.90;;;;;;5050192;28;19924;-85
2021/01/03 07:02:26;;;;;;;;;;;23.30;99.90;;;;;;5052037;28;19913;-82
2021/01/03 07:04:53;;;;;;;;;;;23.20;99.90;;;;;;5036988;28;20395;-84
2021/01/03 07:07:22;;;;;;;;;;;23.10;99.90;;;;;;5034871;28;19971;-83
2021/01/03 07:09:59;;;;;;;;;;;23.10;99.90;;;;;;5032182;28;20461;-82
2021/01/03 07:12:45;;;;;;;;;;;23.20;99.90;;;;;;5044049;28;19924;-83
2021/01/03 07:15:27;;;;;;;;;;;23.30;99.90;;;;;;5050731;28;19917;-83
2021/01/03 07:17:57;;;;;;;;;;;23.30;99.90;;;;;;5042795;28;20337;-83
2021/01/03 07:20:34;;;;;;;;;;;23.30;99.90;;;;;;5031842;28;20268;-84
2021/01/03 07:23:11;;;;;;;;;;;23.30;99.90;;;;;;5048260;28;19920;-84
2021/01/03 07:25:43;;;;;;;;;;;23.30;99.90;;;;;;5033673;28;19980;-86
2021/01/03 07:28:17;;;;;;;;;;;23.30;99.90;;;;;;5042508;28;19917;-83
2021/01/03 07:30:52;;;;;;;;;;;23.30;99.90;;;;;;5052752;28;20268;-84
2021/01/03 07:33:22;;;;;;;;;;;23.30;99.90;;;;;;5036198;28;19921;-85
2021/01/03 07:35:49;;;;;;;;;;;23.30;99.90;;;;;;5032428;28;20382;-83
2021/01/03 07:38:16;;;;;;;;;;;23.30;99.90;;;;;;5033028;28;20462;-84
2021/01/03 07:40:54;;;;;;;;;;;23.30;99.90;;;;;;5051716;28;19963;-85
2021/01/03 07:43:24;;;;;;;;;;;23.40;99.90;;;;;;5035036;28;19959;-83
2021/01/03 07:45:51;;;;;;;;;;;23.30;99.90;;;;;;5031961;28;19917;-84
2021/01/03 07:48:32;;;;;;;;;;;23.30;99.90;;;;;;5037099;28;19905;-88
2021/01/03 07:50:59;;;;;;;;;;;23.20;99.90;;;;;;5047582;28;19925;-89
2021/01/03 07:53:34;;;;;;;;;;;23.10;99.90;;;;;;5046294;28;19913;-88
2021/01/03 07:56:18;;;;;;;;;;;23.10;99.90;;;;;;5041823;28;19959;-84
2021/01/03 07:58:49;;;;;;;;;;;23.10;99.90;;;;;;5035427;28;19920;-86
2021/01/03 08:01:17;;;;;;;;;;;23.00;99.90;;;;;;5041953;28;20011;-88
2021/01/03 08:03:43;;;;;;;;;;;22.90;99.90;;;;;;5044047;28;19920;-87
2021/01/03 08:06:11;;;;;;;;;;;22.90;99.90;;;;;;5052614;28;19929;-86
2021/01/03 08:08:41;;;;;;;;;;;22.90;99.90;;;;;;5053508;28;19944;-88
2021/01/03 08:11:24;;;;;;;;;;;22.80;99.90;;;;;;5036392;28;20004;-86
2021/01/03 08:13:55;;;;;;;;;;;22.80;99.90;;;;;;5056921;28;19909;-87
2021/01/03 08:16:26;;;;;;;;;;;22.80;99.90;;;;;;5039293;28;19913;-87
2021/01/03 08:19:15;;;;;;;;;;;22.80;99.90;;;;;;5053650;28;19909;-89
2021/01/03 08:21:47;;;;;;;;;;;22.80;99.90;;;;;;5046115;28;19969;-89
2021/01/03 08:24:14;;;;;;;;;;;22.70;99.90;;;;;;5053781;28;20420;-87
2021/01/03 08:26:44;;;;;;;;;;;22.70;99.90;;;;;;5031049;28;20174;-88
2021/01/03 08:29:36;;;;;;;;;;;22.60;99.90;;;;;;5033252;28;20549;-87
2021/01/03 08:32:08;;;;;;;;;;;22.70;99.90;;;;;;5034857;28;19960;-89
2021/01/03 08:34:36;;;;;;;;;;;22.60;99.90;;;;;;5050271;28;19908;-90
2021/01/03 08:37:23;;;;;;;;;;;22.60;99.90;;;;;;5043922;28;19980;-87
2021/01/03 08:39:51;;;;;;;;;;;22.60;99.90;;;;;;5035421;28;19923;-88
2021/01/03 08:42:52;;;;;;;;;;;22.60;99.90;;;;;;5036726;28;19963;-90
2021/01/03 08:45:23;;;;;;;;;;;22.60;99.90;;;;;;5019903;28;20046;-88
2021/01/03 08:47:51;;;;;;;;;;;22.60;99.90;;;;;;5040953;28;20260;-89
2021/01/03 08:50:30;;;;;;;;;;;22.60;99.90;;;;;;5041173;28;19909;-89
2021/01/03 08:53:08;;;;;;;;;;;;;;;;;;;;;
2021/01/03 08:55:41;;;;;;;;;;;22.60;99.90;;;;;;5058793;28;19958;-89
2021/01/03 08:58:24;;;;;;;;;;;22.60;99.90;;;;;;5042735;28;19913;-88
2021/01/03 09:00:59;;;;;;;;;;;22.60;99.90;;;;;;5031228;28;20225;-88
2021/01/03 09:03:26;;;;;;;;;;;22.50;99.90;;;;;;5038664;28;19913;-87
2021/01/03 09:05:56;;;;;;;;;;;22.50;99.90;;;;;;5033685;28;19912;-87
2021/01/03 09:08:23;;;;;;;;;;;22.50;99.90;;;;;;5029929;28;20358;-88
2021/01/03 09:10:53;;;;;;;;;;;22.40;99.90;;;;;;5040302;28;19915;-88
2021/01/03 09:13:26;;;;;;;;;;;22.40;99.90;;;;;;5013093;28;19913;-87
2021/01/03 09:16:14;;;;;;;;;;;22.40;99.90;;;;;;5045266;28;19914;-87
2021/01/03 09:18:59;;;;;;;;;;;22.40;99.90;;;;;;5045066;28;19920;-87
2021/01/03 09:21:29;;;;;;;;;;;22.40;99.90;;;;;;5039525;28;19958;-88
2021/01/03 09:24:04;;;;;;;;;;;22.30;99.90;;;;;;5035517;28;19909;-90
2021/01/03 09:26:36;;;;;;;;;;;22.30;99.90;;;;;;5054430;28;20291;-87
2021/01/03 09:29:12;;;;;;;;;;;22.30;99.90;;;;;;5036688;28;19909;-87
2021/01/03 09:31:54;;;;;;;;;;;22.30;99.90;;;;;;5035686;28;19985;-86
2021/01/03 09:34:26;;;;;;;;;;;22.30;99.90;;;;;;5034732;28;20103;-88
2021/01/03 09:37:08;;;;;;;;;;;22.20;99.90;;;;;;5030516;28;20018;-84
2021/01/03 09:39:43;;;;;;;;;;;22.20;99.90;;;;;;5050484;28;19961;-82
2021/01/03 09:42:28;;;;;;;;;;;22.20;99.90;;;;;;5027175;28;19920;-89
2021/01/03 09:45:03;;;;;;;;;;;22.20;99.90;;;;;;5030439;28;19914;-83
2021/01/03 09:47:38;;;;;;;;;;;22.20;99.90;;;;;;5051418;28;19927;-85
2021/01/03 09:50:13;;;;;;;;;;;22.10;99.90;;;;;;5040109;28;19916;-83
2021/01/03 09:52:47;;;;;;;;;;;22.10;99.90;;;;;;5039735;28;19915;-83
2021/01/03 09:55:19;;;;;;;;;;;22.10;99.90;;;;;;5051936;28;19912;-82
2021/01/03 09:57:58;;;;;;;;;;;22.10;99.90;;;;;;5052687;28;19913;-83
2021/01/03 10:00:44;;;;;;;;;;;22.00;99.90;;;;;;5046111;28;19928;-83
2021/01/03 10:03:51;;;;;;;;;;;22.00;99.90;;;;;;5051039;28;20024;-85
2021/01/03 10:06:20;;;;;;;;;;;22.00;99.90;;;;;;5054202;28;20014;-84
2021/01/03 10:08:48;;;;;;;;;;;22.00;99.90;;;;;;5063536;28;19940;-84
2021/01/03 10:11:28;;;;;;;;;;;22.00;99.90;;;;;;5031572;28;19913;-83
2021/01/03 10:13:56;;;;;;;;;;;22.00;99.90;;;;;;5069733;28;19948;-85
2021/01/03 10:16:25;;;;;;;;;;;22.00;99.90;;;;;;5071010;28;19962;-82
2021/01/03 10:18:52;;;;;;;;;;;22.00;99.90;;;;;;5070690;28;19988;-83
2021/01/03 10:21:27;;;;;;;;;;;21.90;99.90;;;;;;5050537;28;19948;-84
2021/01/03 10:23:55;;;;;;;;;;;21.90;99.90;;;;;;5065935;28;20011;-82
2021/01/03 10:26:27;;;;;;;;;;;21.90;99.90;;;;;;5059991;28;20333;-82
2021/01/03 10:28:57;;;;;;;;;;;21.90;99.90;;;;;;5069280;28;19917;-83
2021/01/03 10:31:25;;;;;;;;;;;21.90;99.90;;;;;;5073480;28;19931;-85
2021/01/03 10:33:52;;;;;;;;;;;21.80;99.90;;;;;;5053974;28;19921;-83
2021/01/03 10:36:23;;;;;;;;;;;21.80;99.90;;;;;;5041092;28;19944;-83
2021/01/03 10:38:50;;;;;;;;;;;21.90;99.90;;;;;;5048655;28;20291;-83
2021/01/03 10:41:23;;;;;;;;;;;21.80;99.90;;;;;;5039381;28;19913;-83
2021/01/03 10:43:50;;;;;;;;;;;21.80;99.90;;;;;;5036064;28;19923;-80
2021/01/03 10:46:17;;;;;;;;;;;21.80;99.90;;;;;;5054444;28;19940;-84
2021/01/03 10:48:43;;;;;;;;;;;21.80;99.90;;;;;;5035171;28;19942;-84
2021/01/03 10:51:13;;;;;;;;;;;21.80;99.90;;;;;;5031379;28;19924;-85
2021/01/03 10:53:40;;;;;;;;;;;21.80;99.90;;;;;;5042071;28;20391;-85
2021/01/03 10:56:08;;;;;;;;;;;21.80;99.90;;;;;;5049058;28;19938;-85
2021/01/03 10:58:35;;;;;;;;;;;21.80;99.90;;;;;;5058714;28;20390;-86
2021/01/03 11:01:02;;;;;;;;;;;21.80;99.90;;;;;;5054537;28;19943;-84
2021/01/03 11:03:29;;;;;;;;;;;21.90;99.90;;;;;;5050243;28;19917;-85
2021/01/03 11:05:55;;;;;;;;;;;21.90;99.90;;;;;;5050902;28;19917;-86
2021/01/03 11:08:22;;;;;;;;;;;21.80;99.90;;;;;;5051797;28;19973;-82
2021/01/03 11:10:50;;;;;;;;;;;21.80;99.90;;;;;;5048487;28;19931;-85
2021/01/03 11:13:26;;;;;;;;;;;21.80;99.90;;;;;;5035439;28;19924;-86
2021/01/03 11:15:53;;;;;;;;;;;21.80;99.90;;;;;;5056398;28;19960;-82
2021/01/03 11:18:19;;;;;;;;;;;21.80;99.90;;;;;;5033526;28;19919;-84
2021/01/03 11:20:46;;;;;;;;;;;21.80;99.90;;;;;;5034729;28;19919;-87
2021/01/03 11:23:13;;;;;;;;;;;21.80;99.90;;;;;;5049662;28;19919;-83
2021/01/03 11:25:40;;;;;;;;;;;21.80;99.90;;;;;;5023282;28;19955;-86
2021/01/03 11:28:08;;;;;;;;;;;21.80;99.90;;;;;;5027316;28;20386;-86
2021/01/03 11:30:34;;;;;;;;;;;21.80;99.90;;;;;;5032633;28;19948;-84
2021/01/03 11:33:01;;;;;;;;;;;21.90;99.90;;;;;;5024599;28;20381;-84
2021/01/03 11:35:28;;;;;;;;;;;21.90;99.90;;;;;;5016315;28;19923;-85
2021/01/03 11:37:55;;;;;;;;;;;21.90;99.90;;;;;;5033156;28;19948;-88
2021/01/03 11:40:22;;;;;;;;;;;21.90;99.90;;;;;;5034386;28;20260;-90
2021/01/03 11:42:49;;;;;;;;;;;21.90;99.90;;;;;;5020820;28;19928;-88
2021/01/03 11:45:18;;;;;;;;;;;21.90;99.90;;;;;;5028331;28;19924;-89
2021/01/03 11:47:44;;;;;;;;;;;21.90;99.90;;;;;;5044579;28;20367;-85
2021/01/03 11:50:12;;;;;;;;;;;21.90;99.90;;;;;;5044419;28;19936;-88
2021/01/03 11:52:39;;;;;;;;;;;21.90;99.90;;;;;;5038845;28;19920;-85
2021/01/03 11:55:10;;;;;;;;;;;21.90;99.90;;;;;;5041205;28;19963;-86
2021/01/03 11:57:37;;;;;;;;;;;21.90;99.90;;;;;;5038706;28;20417;-84
2021/01/03 12:00:08;;;;;;;;;;;21.90;99.90;;;;;;5035912;28;20449;-83
2021/01/03 12:02:35;;;;;;;;;;;21.90;99.90;;;;;;5030728;28;19970;-80
2021/01/03 12:05:02;;;;;;;;;;;21.90;99.90;;;;;;5053377;28;19920;-83
2021/01/03 12:07:29;;;;;;;;;;;21.90;99.90;;;;;;5043899;28;19947;-79
2021/01/03 12:09:55;;;;;;;;;;;21.90;99.90;;;;;;5037698;28;19963;-81
2021/01/03 12:12:22;;;;;;;;;;;21.90;99.90;;;;;;5037585;28;20542;-80
2021/01/03 12:14:49;;;;;;;;;;;21.90;99.90;;;;;;5035648;28;19913;-83
2021/01/03 12:17:17;;;;;;;;;;;21.90;99.90;;;;;;5039789;28;20326;-83
2021/01/03 12:19:45;;;;;;;;;;;21.90;99.90;;;;;;5051575;28;19909;-81
2021/01/03 12:22:13;;;;;;;;;;;21.80;99.90;;;;;;5031645;28;19917;-85
2021/01/03 12:24:40;;;;;;;;;;;21.80;99.90;;;;;;5036779;28;19921;-81
2021/01/03 12:27:10;;;;;;;;;;;21.80;99.90;;;;;;5036593;28;20298;-80
2021/01/03 12:29:37;;;;;;;;;;;21.80;99.90;;;;;;5036012;28;19921;-83
2021/01/03 12:32:07;;;;;;;;;;;21.80;99.90;;;;;;5038705;28;19920;-82
2021/01/03 12:34:34;;;;;;;;;;;21.80;99.90;;;;;;5020827;28;19944;-81
2021/01/03 12:37:05;;;;;;;;;;;21.80;99.90;;;;;;5037886;28;20006;-83
2021/01/03 12:39:32;;;;;;;;;;;21.70;99.90;;;;;;5042891;28;19917;-81
2021/01/03 12:42:01;;;;;;;;;;;21.80;99.90;;;;;;5042818;28;19917;-82
2021/01/03 12:44:28;;;;;;;;;;;21.70;99.90;;;;;;5053577;28;19917;-83
2021/01/03 12:47:00;;;;;;;;;;;21.70;99.90;;;;;;5033921;28;19931;-81
2021/01/03 12:49:27;;;;;;;;;;;21.70;99.90;;;;;;5046086;28;19917;-81
2021/01/03 12:51:54;;;;;;;;;;;21.70;99.90;;;;;;5050950;28;20024;-82
2021/01/03 12:54:25;;;;;;;;;;;21.70;99.90;;;;;;5049866;28;19916;-82
2021/01/03 12:56:52;;;;;;;;;;;21.70;99.90;;;;;;5021029;28;20612;-83
2021/01/03 12:59:19;;;;;;;;;;;21.70;99.90;;;;;;5022542;28;19919;-82
2021/01/03 13:01:47;;;;;;;;;;;21.60;99.90;;;;;;5034487;28;20012;-82
2021/01/03 13:04:15;;;;;;;;;;;21.60;99.90;;;;;;5042682;28;19909;-82
2021/01/03 13:06:45;;;;;;;;;;;21.60;99.90;;;;;;5036715;28;19935;-81
2021/01/03 13:09:14;;;;;;;;;;;21.70;99.90;;;;;;5020778;28;19973;-82
2021/01/03 13:11:41;;;;;;;;;;;21.70;99.90;;;;;;5018443;28;19917;-81
2021/01/03 13:14:09;;;;;;;;;;;21.70;99.90;;;;;;5013572;28;19913;-82
2021/01/03 13:16:36;;;;;;;;;;;21.70;99.90;;;;;;5028209;28;19956;-82
2021/01/03 13:19:03;;;;;;;;;;;21.70;99.90;;;;;;5017168;28;19921;-82
2021/01/03 13:21:30;;;;;;;;;;;21.70;99.90;;;;;;5019619;28;19909;-81
2021/01/03 13:23:57;;;;;;;;;;;21.70;99.90;;;;;;5013746;28;20267;-81
2021/01/03 13:26:24;;;;;;;;;;;21.60;99.90;;;;;;5020608;28;20295;-82
2021/01/03 13:28:51;;;;;;;;;;;21.60;99.90;;;;;;5029361;28;20283;-82
2021/01/03 13:31:21;;;;;;;;;;;21.60;99.90;;;;;;5025659;28;19916;-81
2021/01/03 13:33:48;;;;;;;;;;;21.60;99.90;;;;;;5022149;28;19909;-81
2021/01/03 13:36:15;;;;;;;;;;;21.60;99.90;;;;;;5031463;28;20048;-82
2021/01/03 13:38:43;;;;;;;;;;;21.70;99.90;;;;;;5030263;28;19936;-82
2021/01/03 13:41:10;;;;;;;;;;;21.70;99.90;;;;;;5014409;28;19909;-81
2021/01/03 13:43:38;;;;;;;;;;;21.70;99.90;;;;;;5013844;28;19910;-83
2021/01/03 13:46:05;;;;;;;;;;;21.70;99.90;;;;;;5031975;28;19921;-83
2021/01/03 13:48:33;;;;;;;;;;;21.70;99.90;;;;;;5008483;28;20523;-84
2021/01/03 13:51:00;;;;;;;;;;;21.70;99.90;;;;;;5030742;28;19913;-82
2021/01/03 13:53:28;;;;;;;;;;;21.70;99.90;;;;;;5013435;28;19914;-82
2021/01/03 13:55:54;;;;;;;;;;;21.70;99.90;;;;;;5020788;28;19909;-84
2021/01/03 13:58:21;;;;;;;;;;;21.60;99.90;;;;;;5032544;28;19913;-82
2021/01/03 14:00:48;;;;;;;;;;;21.60;99.90;;;;;;5018230;28;20454;-84
2021/01/03 14:03:14;;;;;;;;;;;21.60;99.90;;;;;;5022632;28;20318;-82
2021/01/03 14:05:43;;;;;;;;;;;21.60;99.90;;;;;;5026086;28;19918;-82
2021/01/03 14:08:09;;;;;;;;;;;21.60;99.90;;;;;;5023485;28;19921;-81
2021/01/03 14:10:39;;;;;;;;;;;21.60;99.90;;;;;;5033313;28;19916;-83
2021/01/03 14:13:06;;;;;;;;;;;21.60;99.90;;;;;;5028412;28;19913;-82
2021/01/03 14:15:36;;;;;;;;;;;21.60;99.90;;;;;;5031616;28;20003;-84
2021/01/03 14:18:03;;;;;;;;;;;21.70;99.90;;;;;;5031265;28;20489;-84
2021/01/03 14:20:30;;;;;;;;;;;21.60;99.90;;;;;;5037708;28;19912;-82
2021/01/03 14:22:57;;;;;;;;;;;21.60;99.90;;;;;;5034384;28;20011;-80
2021/01/03 14:25:25;;;;;;;;;;;21.60;99.90;;;;;;5032100;28;19958;-82
2021/01/03 14:27:53;;;;;;;;;;;21.60;99.90;;;;;;5032722;28;19921;-84
2021/01/03 14:30:21;;;;;;;;;;;21.50;99.90;;;;;;5032532;28;19916;-82
2021/01/03 14:32:52;;;;;;;;;;;21.60;99.90;;;;;;5025720;28;19919;-82
2021/01/03 14:35:23;;;;;;;;;;;21.50;99.90;;;;;;5027702;28;20231;-82
2021/01/03 14:38:00;;;;;;;;;;;21.60;99.90;;;;;;5037056;28;19967;-84